createdAt,value
2023-03-23T00:00:14.487Z,96328.81
2023-03-23T00:02:19.846Z,96323.03
2023-03-23T00:04:28.164Z,96320.69
2023-03-23T00:06:34.183Z,96322.06
2023-03-23T00:08:46.211Z,96323.00
2023-03-23T00:10:53.548Z,96318.28
2023-03-23T00:12:58.928Z,96324.19
2023-03-23T00:15:04.657Z,96337.75
2023-03-23T00:17:11.066Z,96331.19
2023-03-23T00:19:16.960Z,96336.78
2023-03-23T00:21:22.081Z,96335.50
2023-03-23T00:23:29.893Z,96333.16
2023-03-23T00:25:37.347Z,96332.66
2023-03-23T00:27:42.249Z,96339.06
2023-03-23T00:29:49.012Z,96330.63
2023-03-23T00:31:57.763Z,96326.44
2023-03-23T00:34:05.143Z,96329.06
2023-03-23T00:36:12.389Z,96333.28
2023-03-23T00:38:17.230Z,96327.19
2023-03-23T00:40:22.193Z,96323.28
2023-03-23T00:42:29.732Z,96328.09
2023-03-23T00:44:37.472Z,96323.88
2023-03-23T00:46:46.260Z,96329.47
2023-03-23T00:48:51.734Z,96325.09
2023-03-23T00:50:57.063Z,96324.59
2023-03-23T00:53:02.305Z,96327.84
2023-03-23T00:55:08.549Z,96327.63
2023-03-23T00:57:13.508Z,96333.53
2023-03-23T00:59:21.254Z,96327.72
2023-03-23T01:01:26.204Z,96331.78
2023-03-23T01:03:31.216Z,96328.34
2023-03-23T01:05:39.323Z,96324.13
2023-03-23T01:07:45.456Z,96319.63
2023-03-23T01:09:50.632Z,96324.91
2023-03-23T01:11:57.423Z,96330.50
2023-03-23T01:14:03.015Z,96318.16
2023-03-23T01:16:10.819Z,96323.75
2023-03-23T01:18:15.777Z,96330.91
2023-03-23T01:20:20.716Z,96323.56
2023-03-23T01:22:26.186Z,96323.09
2023-03-23T01:24:31.350Z,96321.03
2023-03-23T01:26:37.053Z,96320.53
2023-03-23T01:28:42.798Z,96320.06
2023-03-23T01:30:47.736Z,96319.25
2023-03-23T01:32:55.666Z,96315.38
2023-03-23T01:35:02.323Z,96313.78
2023-03-23T01:37:07.438Z,96319.09
2023-03-23T01:39:12.980Z,96313.31
2023-03-23T01:41:21.956Z,96324.69
2023-03-23T01:43:27.159Z,96318.59
2023-03-23T01:45:35.948Z,96322.03
2023-03-23T01:47:41.582Z,96313.31
2023-03-23T01:49:52.434Z,96310.97
2023-03-23T01:52:01.459Z,96307.53
2023-03-23T01:54:08.534Z,96303.78
2023-03-23T01:56:15.123Z,96296.63
2023-03-23T01:58:26.689Z,96295.56
2023-03-23T02:00:31.733Z,96289.50
2023-03-23T02:02:39.504Z,96283.91
2023-03-23T02:04:45.568Z,96292.13
2023-03-23T02:06:53.671Z,96293.00
2023-03-23T02:09:10.529Z,96294.09
2023-03-23T02:11:22.148Z,96303.41
2023-03-23T02:13:28.705Z,96302.94
2023-03-23T02:15:47.454Z,96293.72
2023-03-23T02:17:58.410Z,96293.44
2023-03-23T02:20:16.932Z,96289.97
2023-03-23T02:22:51.371Z,96300.88
2023-03-23T02:25:01.421Z,96288.72
2023-03-23T02:27:10.335Z,96292.16
2023-03-23T02:29:47.270Z,96287.47
2023-03-23T02:32:09.541Z,96286.19
2023-03-23T02:34:22.303Z,96288.34
2023-03-23T02:36:32.399Z,96278.44
2023-03-23T02:38:51.917Z,96281.31
2023-03-23T02:41:01.277Z,96283.66
2023-03-23T02:43:11.372Z,96281.78
2023-03-23T02:45:19.861Z,96279.13
2023-03-23T02:47:27.740Z,96281.47
2023-03-23T02:49:38.782Z,96283.06
2023-03-23T02:51:44.447Z,96281.38
2023-03-23T02:53:51.857Z,96276.88
2023-03-23T02:55:59.045Z,96281.09
2023-03-23T02:58:07.608Z,96280.28
2023-03-23T03:00:19.821Z,96281.69
2023-03-23T03:02:27.353Z,96284.34
2023-03-23T03:04:37.807Z,96282.75
2023-03-23T03:06:54.438Z,96289.13
2023-03-23T03:09:09.075Z,96292.38
2023-03-23T03:11:16.447Z,96292.06
2023-03-23T03:13:34.140Z,96283.66
2023-03-23T03:15:48.075Z,96280.50
2023-03-23T03:17:59.992Z,96279.44
2023-03-23T03:20:11.711Z,96274.75
2023-03-23T03:22:18.268Z,96266.28
2023-03-23T03:24:26.203Z,96273.16
2023-03-23T03:26:32.968Z,96269.75
2023-03-23T03:28:54.329Z,96272.38
2023-03-23T03:31:01.899Z,96267.09
2023-03-23T03:33:07.448Z,96271.59
2023-03-23T03:35:15.649Z,96271.88
2023-03-23T03:37:22.461Z,96274.53
2023-03-23T03:39:30.692Z,96271.13
2023-03-23T03:41:35.689Z,96261.59
2023-03-23T03:43:41.046Z,96257.41
2023-03-23T03:45:46.359Z,96263.66
2023-03-23T03:47:51.827Z,96263.66
2023-03-23T03:49:56.757Z,96275.81
2023-03-23T03:52:05.456Z,96279.53
2023-03-23T03:54:19.108Z,96291.69
2023-03-23T03:56:24.221Z,96284.81
2023-03-23T03:58:43.642Z,96285.91
2023-03-23T04:01:03.564Z,96287.75
2023-03-23T04:03:13.217Z,96282.16
2023-03-23T04:05:26.080Z,96282.16
2023-03-23T04:07:33.544Z,96286.97
2023-03-23T04:09:47.083Z,96288.66
2023-03-23T04:11:56.601Z,96296.69
2023-03-23T04:14:20.407Z,96295.50
2023-03-23T04:16:27.408Z,96291.59
2023-03-23T04:18:33.311Z,96302.50
2023-03-23T04:20:39.108Z,96301.19
2023-03-23T04:22:50.213Z,96305.22
2023-03-23T04:24:57.740Z,96299.44
2023-03-23T04:27:04.517Z,96307.38
2023-03-23T04:29:09.743Z,96306.09
2023-03-23T04:31:16.029Z,96315.59
2023-03-23T04:33:27.350Z,96319.78
2023-03-23T04:35:54.303Z,96322.94
2023-03-23T04:38:21.506Z,96321.38
2023-03-23T04:40:31.649Z,96312.97
2023-03-23T04:42:58.749Z,96317.25
2023-03-23T04:45:22.809Z,96315.97
2023-03-23T04:47:31.861Z,96304.13
2023-03-23T04:49:39.316Z,96296.69
2023-03-23T04:51:57.721Z,96297.47
2023-03-23T04:54:23.269Z,96298.53
2023-03-23T04:56:32.300Z,96295.59
2023-03-23T04:58:45.003Z,96306.47
2023-03-23T05:01:08.900Z,96310.50
2023-03-23T05:03:23.596Z,96317.44
2023-03-23T05:05:33.171Z,96326.75
2023-03-23T05:07:44.133Z,96318.31
2023-03-23T05:09:54.075Z,96329.16
2023-03-23T05:12:01.902Z,96330.25
2023-03-23T05:14:07.866Z,96325.75
2023-03-23T05:16:13.154Z,96329.47
2023-03-23T05:18:21.456Z,96321.53
2023-03-23T05:20:27.018Z,96333.38
2023-03-23T05:22:39.405Z,96323.63
2023-03-23T05:24:46.429Z,96324.38
2023-03-23T05:26:54.107Z,96313.53
2023-03-23T05:29:04.973Z,96321.63
2023-03-23T05:31:21.646Z,96319.50
2023-03-23T05:33:27.072Z,96313.63
2023-03-23T05:35:39.151Z,96311.16
2023-03-23T05:37:44.979Z,96319.63
2023-03-23T05:39:54.421Z,96315.88
2023-03-23T05:42:31.349Z,96321.75
2023-03-23T05:44:46.642Z,96316.16
2023-03-23T05:46:51.685Z,96320.38
2023-03-23T05:48:57.153Z,96323.31
2023-03-23T05:51:09.760Z,96328.81
2023-03-23T05:53:18.108Z,96327.72
2023-03-23T05:55:23.120Z,96333.03
2023-03-23T05:57:40.366Z,96318.25
2023-03-23T05:59:53.391Z,96318.72
2023-03-23T06:02:01.758Z,96299.16
2023-03-23T06:04:07.531Z,96300.41
2023-03-23T06:06:22.834Z,96310.69
2023-03-23T06:08:38.208Z,96300.09
2023-03-23T06:10:43.579Z,96291.59
2023-03-23T06:12:54.220Z,96297.66
2023-03-23T06:15:19.557Z,96294.72
2023-03-23T06:17:43.274Z,96277.50
2023-03-23T06:19:51.878Z,96275.84
2023-03-23T06:21:58.229Z,96265.44
2023-03-23T06:24:18.632Z,96266.41
2023-03-23T06:26:26.334Z,96263.19
2023-03-23T06:28:39.391Z,96255.41
2023-03-23T06:30:44.928Z,96260.31
2023-03-23T06:32:50.073Z,96258.66
2023-03-23T06:34:59.583Z,96275.97
2023-03-23T06:37:28.035Z,96249.22
2023-03-23T06:39:40.819Z,96254.41
2023-03-23T06:41:58.017Z,96245.56
2023-03-23T06:44:05.629Z,96242.78
2023-03-23T06:46:12.109Z,96243.47
2023-03-23T06:48:19.779Z,96233.53
2023-03-23T06:50:25.272Z,96247.91
2023-03-23T06:52:30.491Z,96237.22
2023-03-23T06:54:35.485Z,96256.13
2023-03-23T06:56:41.786Z,96239.81
2023-03-23T06:58:49.402Z,96248.44
2023-03-23T07:01:02.278Z,96260.50
2023-03-23T07:03:16.212Z,96274.69
2023-03-23T07:05:22.181Z,96268.50
2023-03-23T07:07:29.084Z,96272.69
2023-03-23T07:09:48.619Z,96269.88
2023-03-23T07:11:57.788Z,96283.91
2023-03-23T07:14:12.988Z,96291.38
2023-03-23T07:16:21.790Z,96302.28
2023-03-23T07:18:26.819Z,96302.75
2023-03-23T07:20:32.795Z,96314.13
2023-03-23T07:22:38.049Z,96305.09
2023-03-23T07:24:51.113Z,96299.50
2023-03-23T07:27:02.569Z,96326.19
2023-03-23T07:29:08.444Z,96306.44
2023-03-23T07:31:22.041Z,96297.56
2023-03-23T07:33:27.382Z,96309.28
2023-03-23T07:35:34.893Z,96305.75
2023-03-23T07:37:43.128Z,96294.25
2023-03-23T07:39:48.032Z,96303.00
2023-03-23T07:41:54.140Z,96302.59
2023-03-23T07:44:12.085Z,96304.47
2023-03-23T07:46:22.220Z,96294.72
2023-03-23T07:48:49.258Z,96291.00
2023-03-23T07:50:55.141Z,96300.84
2023-03-23T07:53:02.120Z,96315.53
2023-03-23T07:55:13.018Z,96298.41
2023-03-23T07:57:30.752Z,96297.38
2023-03-23T07:59:36.529Z,96294.91
2023-03-23T08:01:45.376Z,96287.56
2023-03-23T08:04:08.799Z,96291.03
2023-03-23T08:06:37.143Z,96302.44
2023-03-23T08:08:58.146Z,96295.56
2023-03-23T08:11:22.374Z,96306.50
2023-03-23T08:13:51.293Z,96294.97
2023-03-23T08:15:58.853Z,96297.88
2023-03-23T08:18:18.552Z,96305.72
2023-03-23T08:20:55.535Z,96292.09
2023-03-23T08:23:10.517Z,96294.91
2023-03-23T08:25:32.374Z,96299.13
2023-03-23T08:27:56.132Z,96289.88
2023-03-23T08:30:15.318Z,96289.75
2023-03-23T08:32:32.764Z,96290.53
2023-03-23T08:34:55.830Z,96301.97
2023-03-23T08:37:20.782Z,96311.03
2023-03-23T08:39:44.368Z,96295.06
2023-03-23T08:42:06.220Z,96291.31
2023-03-23T08:44:23.298Z,96316.03
2023-03-23T08:46:50.830Z,96299.31
2023-03-23T08:49:14.253Z,96299.00
2023-03-23T08:51:34.815Z,96301.00
2023-03-23T08:54:07.098Z,96303.34
2023-03-23T08:56:41.294Z,96295.19
2023-03-23T08:59:04.188Z,96309.41
2023-03-23T09:01:14.548Z,96310.03
2023-03-23T09:03:22.165Z,96302.22
2023-03-23T09:05:49.781Z,96305.00
2023-03-23T09:08:00.006Z,96301.06
2023-03-23T09:10:05.169Z,96296.03
2023-03-23T09:12:10.594Z,96311.50
2023-03-23T09:14:15.656Z,96303.03
2023-03-23T09:16:20.444Z,96319.28
2023-03-23T09:18:25.865Z,96310.16
2023-03-23T09:20:32.321Z,96315.47
2023-03-23T09:22:37.171Z,96323.84
2023-03-23T09:24:44.977Z,96323.47
2023-03-23T09:26:49.772Z,96326.09
2023-03-23T09:28:54.716Z,96330.59
2023-03-23T09:31:00.401Z,96332.88
2023-03-23T09:33:05.957Z,96336.72
2023-03-23T09:35:13.719Z,96329.09
2023-03-23T09:37:18.835Z,96329.19
2023-03-23T09:39:23.639Z,96324.72
2023-03-23T09:41:53.414Z,96327.84
2023-03-23T09:44:07.687Z,96333.25
2023-03-23T09:46:25.375Z,96335.81
2023-03-23T09:48:45.049Z,96330.28
2023-03-23T09:50:55.624Z,96331.31
2023-03-23T09:53:04.655Z,96335.75
2023-03-23T09:55:15.789Z,96337.56
2023-03-23T09:57:28.654Z,96323.00
2023-03-23T09:59:38.075Z,96326.13
2023-03-23T10:01:46.254Z,96321.72
2023-03-23T10:03:52.555Z,96324.91
2023-03-23T10:05:59.309Z,96328.69
2023-03-23T10:08:06.785Z,96322.47
2023-03-23T10:10:18.826Z,96324.88
2023-03-23T10:12:33.073Z,96337.22
2023-03-23T10:14:51.307Z,96334.22
2023-03-23T10:17:04.659Z,96330.78
2023-03-23T10:19:16.545Z,96340.59
2023-03-23T10:21:25.653Z,96326.78
2023-03-23T10:23:50.083Z,96324.78
2023-03-23T10:25:59.618Z,96319.53
2023-03-23T10:28:13.581Z,96326.44
2023-03-23T10:30:23.150Z,96340.25
2023-03-23T10:32:50.592Z,96321.09
2023-03-23T10:34:59.858Z,96326.53
2023-03-23T10:37:09.496Z,96331.22
2023-03-23T10:39:18.375Z,96333.25
2023-03-23T10:41:25.612Z,96331.00
2023-03-23T10:43:34.495Z,96332.91
2023-03-23T10:45:44.182Z,96326.41
2023-03-23T10:47:56.873Z,96342.78
2023-03-23T10:50:06.467Z,96327.88
2023-03-23T10:52:22.555Z,96331.88
2023-03-23T10:54:36.221Z,96329.47
2023-03-23T10:56:58.127Z,96335.16
2023-03-23T10:59:15.807Z,96328.16
2023-03-23T11:01:23.229Z,96330.03
2023-03-23T11:03:45.339Z,96328.78
2023-03-23T11:05:54.364Z,96328.03
2023-03-23T11:08:01.290Z,96329.13
2023-03-23T11:10:26.943Z,96330.16
2023-03-23T11:12:37.552Z,96327.47
2023-03-23T11:14:45.980Z,96338.16
2023-03-23T11:16:59.415Z,96337.06
2023-03-23T11:19:17.601Z,96330.94
2023-03-23T11:21:24.641Z,96329.47
2023-03-23T11:23:32.991Z,96327.59
2023-03-23T11:25:37.838Z,96331.03
2023-03-23T11:27:44.384Z,96329.59
2023-03-23T11:29:58.587Z,96328.78
2023-03-23T11:32:09.724Z,96333.03
2023-03-23T11:34:19.527Z,96334.13
2023-03-23T11:36:25.018Z,96327.69
2023-03-23T11:38:31.288Z,96323.13
2023-03-23T11:40:36.852Z,96320.13
2023-03-23T11:42:47.000Z,96317.97
2023-03-23T11:44:54.428Z,96322.34
2023-03-23T11:47:07.278Z,96316.41
2023-03-23T11:49:25.743Z,96315.03
2023-03-23T11:51:38.621Z,96315.25
2023-03-23T11:53:51.248Z,96325.72
2023-03-23T11:56:04.250Z,96312.03
2023-03-23T11:58:16.907Z,96316.69
2023-03-23T12:00:26.801Z,96315.94
2023-03-23T12:02:46.697Z,96316.69
2023-03-23T12:05:11.505Z,96316.69
2023-03-23T12:07:51.790Z,96318.25
2023-03-23T12:10:07.020Z,96313.25
2023-03-23T12:12:20.667Z,96308.00
2023-03-23T12:14:38.177Z,96312.31
2023-03-23T12:17:05.370Z,96310.09
2023-03-23T12:19:20.461Z,96306.41
2023-03-23T12:21:34.213Z,96298.56
2023-03-23T12:23:47.725Z,96299.09
2023-03-23T12:26:19.505Z,96298.41
2023-03-23T12:28:37.264Z,96298.50
2023-03-23T12:30:49.525Z,96305.53
2023-03-23T12:33:09.914Z,96298.59
2023-03-23T12:35:27.432Z,96305.19
2023-03-23T12:37:47.033Z,96305.59
2023-03-23T12:40:10.718Z,96303.69
2023-03-23T12:42:26.979Z,96310.59
2023-03-23T12:44:38.949Z,96310.25
2023-03-23T12:46:55.497Z,96297.66
2023-03-23T12:49:09.500Z,96300.44
2023-03-23T12:51:25.173Z,96296.66
2023-03-23T12:53:32.998Z,96296.03
2023-03-23T12:55:45.584Z,96298.38
2023-03-23T12:57:58.848Z,96298.38
2023-03-23T13:00:13.095Z,96297.66
2023-03-23T13:02:24.349Z,96296.56
2023-03-23T13:04:37.401Z,96290.50
2023-03-23T13:06:43.462Z,96285.44
2023-03-23T13:08:54.664Z,96291.72
2023-03-23T13:11:04.469Z,96285.00
2023-03-23T13:13:21.431Z,96286.97
2023-03-23T13:15:35.391Z,96290.44
2023-03-23T13:17:48.864Z,96283.28
2023-03-23T13:20:23.266Z,96284.09
2023-03-23T13:22:35.004Z,96281.06
2023-03-23T13:24:45.383Z,96279.94
2023-03-23T13:26:53.281Z,96273.09
2023-03-23T13:29:03.081Z,96272.69
2023-03-23T13:31:17.427Z,96267.75
2023-03-23T13:33:22.416Z,96270.41
2023-03-23T13:35:29.941Z,96274.25
2023-03-23T13:37:35.180Z,96276.91
2023-03-23T13:39:42.429Z,96273.44
2023-03-23T13:41:52.871Z,96275.34
2023-03-23T13:44:09.852Z,96262.72
2023-03-23T13:46:32.896Z,96276.22
2023-03-23T13:48:49.502Z,96260.16
2023-03-23T13:51:29.966Z,96266.28
2023-03-23T13:53:54.916Z,96261.63
2023-03-23T13:56:18.129Z,96268.44
2023-03-23T13:58:31.682Z,96269.91
2023-03-23T14:00:53.061Z,96267.47
2023-03-23T14:03:09.046Z,96264.03
2023-03-23T14:08:00.894Z,96263.50
2023-03-23T14:10:11.086Z,96262.63
2023-03-23T14:12:21.891Z,96262.97
2023-03-23T14:14:33.682Z,96262.88
2023-03-23T14:16:43.452Z,96268.56
2023-03-23T14:18:56.380Z,96273.50
2023-03-23T14:21:03.178Z,96270.38
2023-03-23T14:23:18.887Z,96271.06
2023-03-23T14:25:25.348Z,96271.88
2023-03-23T14:27:30.805Z,96266.94
2023-03-23T14:29:36.030Z,96264.59
2023-03-23T14:31:41.745Z,96256.22
2023-03-23T14:33:46.662Z,96250.53
2023-03-23T14:35:51.638Z,96260.91
2023-03-23T14:37:56.894Z,96259.78
2023-03-23T14:40:07.043Z,96265.13
2023-03-23T14:42:16.911Z,96264.38
2023-03-23T14:44:26.916Z,96271.34
2023-03-23T14:46:33.708Z,96262.19
2023-03-23T14:48:39.729Z,96261.41
2023-03-23T14:50:46.502Z,96260.66
2023-03-23T14:52:52.478Z,96256.41
2023-03-23T14:54:57.669Z,96268.22
2023-03-23T14:57:14.371Z,96254.44
2023-03-23T14:59:19.363Z,96252.09
2023-03-23T15:01:28.365Z,96261.25
2023-03-23T15:03:39.416Z,96252.00
2023-03-23T15:05:50.126Z,96253.47
2023-03-23T15:07:59.254Z,96244.25
2023-03-23T15:10:04.392Z,96256.41
2023-03-23T15:12:24.793Z,96260.88
2023-03-23T15:14:33.182Z,96250.09
2023-03-23T15:16:42.634Z,96260.34
2023-03-23T15:18:54.935Z,96260.97
2023-03-23T15:20:59.871Z,96261.66
2023-03-23T15:23:10.737Z,96265.34
2023-03-23T15:25:22.142Z,96266.81
2023-03-23T15:27:36.783Z,96270.53
2023-03-23T15:29:51.223Z,96266.97
2023-03-23T15:31:58.854Z,96263.19
2023-03-23T15:34:08.530Z,96259.28
2023-03-23T15:36:19.810Z,96264.19
2023-03-23T15:38:26.840Z,96269.53
2023-03-23T15:40:37.486Z,96269.00
2023-03-23T15:42:45.695Z,96258.22
2023-03-23T15:45:00.161Z,96262.31
2023-03-23T15:47:18.353Z,96263.75
2023-03-23T15:49:24.695Z,96257.31
2023-03-23T15:51:31.447Z,96262.22
2023-03-23T15:53:39.266Z,96271.28
2023-03-23T15:55:44.363Z,96263.91
2023-03-23T15:57:53.056Z,96259.25
2023-03-23T15:59:57.892Z,96258.81
2023-03-23T16:02:02.719Z,96262.16
2023-03-23T16:04:10.711Z,96268.19
2023-03-23T16:06:25.324Z,96272.31
2023-03-23T16:08:30.807Z,96267.19
2023-03-23T16:10:35.660Z,96270.22
2023-03-23T16:12:40.714Z,96274.03
2023-03-23T16:14:48.191Z,96277.81
2023-03-23T16:16:54.397Z,96273.22
2023-03-23T16:18:59.642Z,96272.78
2023-03-23T16:21:04.458Z,96280.38
2023-03-23T16:23:09.297Z,96280.69
2023-03-23T16:25:14.974Z,96282.50
2023-03-23T16:27:21.696Z,96278.28
2023-03-23T16:29:40.592Z,96279.03
2023-03-23T16:31:54.037Z,96280.81
2023-03-23T16:33:58.923Z,96285.84
2023-03-23T16:36:04.031Z,96284.28
2023-03-23T16:38:09.949Z,96286.16
2023-03-23T16:40:16.329Z,96285.72
2023-03-23T16:42:21.186Z,96287.97
2023-03-23T16:44:26.269Z,96288.75
2023-03-23T16:46:31.365Z,96281.50
2023-03-23T16:48:40.829Z,96283.31
2023-03-23T16:50:46.855Z,96282.19
2023-03-23T16:52:51.659Z,96286.28
2023-03-23T16:54:56.544Z,96286.28
2023-03-23T16:57:01.433Z,96292.75
2023-03-23T16:59:06.369Z,96289.31
2023-03-23T17:01:12.202Z,96294.22
2023-03-23T17:03:17.191Z,96290.31
2023-03-23T17:05:26.818Z,96298.22
2023-03-23T17:07:31.792Z,96292.44
2023-03-23T17:09:37.139Z,96295.44
2023-03-23T17:11:42.117Z,96296.91
2023-03-23T17:13:46.953Z,96294.88
2023-03-23T17:15:56.749Z,96299.03
2023-03-23T17:18:02.091Z,96302.78
2023-03-23T17:20:08.264Z,96295.56
2023-03-23T17:22:15.724Z,96297.31
2023-03-23T17:24:21.197Z,96302.66
2023-03-23T17:26:26.021Z,96295.31
2023-03-23T17:28:30.843Z,96292.31
2023-03-23T17:30:36.152Z,96292.66
2023-03-23T17:32:41.169Z,96298.34
2023-03-23T17:34:46.218Z,96287.97
2023-03-23T17:36:51.068Z,96294.09
2023-03-23T17:38:58.481Z,96301.66
2023-03-23T17:41:08.043Z,96298.22
2023-03-23T17:43:12.915Z,96293.53
2023-03-23T17:45:17.924Z,96299.97
2023-03-23T17:47:24.060Z,96291.53
2023-03-23T17:49:30.492Z,96292.63
2023-03-23T17:51:35.574Z,96291.06
2023-03-23T17:53:40.448Z,96299.41
2023-03-23T17:55:48.663Z,96304.66
2023-03-23T17:57:53.588Z,96308.00
2023-03-23T17:59:58.531Z,96307.44
2023-03-23T18:02:03.494Z,96309.97
2023-03-23T18:04:08.342Z,96315.19
2023-03-23T18:06:13.680Z,96307.06
2023-03-23T18:08:18.480Z,96321.88
2023-03-23T18:10:23.517Z,96318.63
2023-03-23T18:12:31.658Z,96310.81
2023-03-23T18:14:38.606Z,96308.06
2023-03-23T18:16:43.402Z,96322.81
2023-03-23T18:18:48.609Z,96320.81
2023-03-23T18:20:57.548Z,96318.81
2023-03-23T18:23:03.794Z,96326.34
2023-03-23T18:25:09.400Z,96325.00
2023-03-23T18:27:14.460Z,96326.31
2023-03-23T18:29:21.970Z,96324.97
2023-03-23T18:31:27.221Z,96325.59
2023-03-23T18:33:32.022Z,96323.25
2023-03-23T18:35:36.896Z,96322.81
2023-03-23T18:37:43.731Z,96322.38
2023-03-23T18:39:48.680Z,96329.56
2023-03-23T18:41:53.519Z,96325.97
2023-03-23T18:43:59.100Z,96326.31
2023-03-23T18:46:07.083Z,96323.63
2023-03-23T18:48:12.434Z,96324.75
2023-03-23T18:50:18.413Z,96330.09
2023-03-23T18:52:26.256Z,96328.53
2023-03-23T18:54:33.645Z,96338.75
2023-03-23T18:56:38.724Z,96329.19
2023-03-23T18:58:43.644Z,96331.69
2023-03-23T19:00:50.154Z,96332.03
2023-03-23T19:02:58.213Z,96334.91
2023-03-23T19:05:06.120Z,96340.56
2023-03-23T19:07:11.079Z,96335.88
2023-03-23T19:09:15.951Z,96336.50
2023-03-23T19:11:21.214Z,96343.63
2023-03-23T19:13:26.406Z,96341.59
2023-03-23T19:15:31.422Z,96338.16
2023-03-23T19:17:36.278Z,96338.47
2023-03-23T19:19:44.991Z,96331.13
2023-03-23T19:21:50.049Z,96341.03
2023-03-23T19:23:55.074Z,96339.00
2023-03-23T19:26:00.425Z,96336.19
2023-03-23T19:30:14.237Z,96338.41
2023-03-23T19:32:19.080Z,96340.28
2023-03-23T19:34:25.069Z,96341.06
2023-03-23T19:36:33.057Z,96339.84
2023-03-23T19:38:38.042Z,96339.06
2023-03-23T19:40:42.988Z,96338.25
2023-03-23T19:42:48.085Z,96339.34
2023-03-23T19:44:52.904Z,96344.25
2023-03-23T19:46:58.029Z,96341.13
2023-03-23T19:49:04.091Z,96346.78
2023-03-23T19:51:10.561Z,96342.22
2023-03-23T19:53:19.215Z,96344.88
2023-03-23T19:55:24.425Z,96334.22
2023-03-23T19:57:30.248Z,96335.31
2023-03-23T19:59:35.372Z,96334.09
2023-03-23T20:01:41.213Z,96342.06
2023-03-23T20:03:47.915Z,96334.41
2023-03-23T20:05:52.849Z,96337.06
2023-03-23T20:07:58.369Z,96326.41
2023-03-23T20:10:06.321Z,96335.22
2023-03-23T20:12:13.487Z,96333.31
2023-03-23T20:14:18.431Z,96334.09
2023-03-23T20:16:23.721Z,96334.09
2023-03-23T20:18:29.877Z,96334.41
2023-03-23T20:20:36.757Z,96331.41
2023-03-23T20:22:41.975Z,96332.53
2023-03-23T20:24:49.403Z,96329.06
2023-03-23T20:26:57.253Z,96325.53
2023-03-23T20:29:03.128Z,96327.38
2023-03-23T20:31:19.886Z,96338.38
2023-03-23T20:33:30.637Z,96331.78
2023-03-23T20:35:35.541Z,96338.56
2023-03-23T20:37:42.326Z,96332.75
2023-03-23T20:39:48.723Z,96328.56
2023-03-23T20:41:58.922Z,96343.41
2023-03-23T20:44:03.816Z,96339.97
2023-03-23T20:46:10.952Z,96341.06
2023-03-23T20:48:15.895Z,96340.31
2023-03-23T20:50:20.895Z,96338.28
2023-03-23T20:52:26.488Z,96347.81
2023-03-23T20:54:31.798Z,96350.03
2023-03-23T20:56:40.053Z,96340.81
2023-03-23T20:58:47.990Z,96351.44
2023-03-23T21:00:57.242Z,96351.44
2023-03-23T21:03:02.163Z,96351.44
2023-03-23T21:05:07.413Z,96348.00
2023-03-23T21:07:12.949Z,96345.69
2023-03-23T21:09:19.375Z,96345.34
2023-03-23T21:11:27.003Z,96334.69
2023-03-23T21:13:31.914Z,96348.78
2023-03-23T21:15:40.145Z,96342.69
2023-03-23T21:17:44.939Z,96328.59
2023-03-23T21:19:50.177Z,96330.47
2023-03-23T21:21:57.292Z,96325.47
2023-03-23T21:24:02.974Z,96328.44
2023-03-23T21:26:10.233Z,96325.03
2023-03-23T21:28:17.463Z,96332.53
2023-03-23T21:30:22.967Z,96321.41
2023-03-23T21:32:31.230Z,96321.72
2023-03-23T21:34:36.314Z,96319.84
2023-03-23T21:36:41.340Z,96314.84
2023-03-23T21:38:46.501Z,96317.50
2023-03-23T21:40:51.389Z,96322.03
2023-03-23T21:42:56.197Z,96313.59
2023-03-23T21:45:02.842Z,96320.03
2023-03-23T21:47:07.916Z,96319.22
2023-03-23T21:49:17.292Z,96317.22
2023-03-23T21:51:25.577Z,96313.47
2023-03-23T21:53:31.081Z,96310.34
2023-03-23T21:55:36.466Z,96313.78
2023-03-23T21:57:42.578Z,96314.09
2023-03-23T21:59:47.457Z,96304.88
2023-03-23T22:01:52.429Z,96307.09
2023-03-23T22:03:57.548Z,96304.41
2023-03-23T22:06:13.286Z,96305.34
2023-03-23T22:08:18.061Z,96296.94
2023-03-23T22:10:23.179Z,96295.22
2023-03-23T22:12:28.916Z,96289.44
2023-03-23T22:14:33.739Z,96288.66
2023-03-23T22:16:38.789Z,96291.97
2023-03-23T22:18:45.310Z,96293.69
2023-03-23T22:20:50.088Z,96283.38
2023-03-23T22:22:57.741Z,96279.78
2023-03-23T22:25:02.660Z,96276.66
2023-03-23T22:27:08.004Z,96278.09
2023-03-23T22:29:15.087Z,96265.44
2023-03-23T22:31:23.807Z,96265.75
2023-03-23T22:33:29.292Z,96263.09
2023-03-23T22:35:34.249Z,96257.75
2023-03-23T22:37:39.194Z,96257.31
2023-03-23T22:39:46.673Z,96256.06
2023-03-23T22:41:51.498Z,96248.84
2023-03-23T22:43:57.269Z,96250.75
2023-03-23T22:46:02.420Z,96244.94
2023-03-23T22:48:08.511Z,96242.28
2023-03-23T22:50:14.013Z,96240.59
2023-03-23T22:52:18.990Z,96236.38
2023-03-23T22:54:23.802Z,96241.72
2023-03-23T22:56:31.813Z,96235.91
2023-03-23T22:58:36.748Z,96232.16
2023-03-23T23:00:43.282Z,96229.19
2023-03-23T23:02:49.224Z,96227.28
2023-03-23T23:04:54.717Z,96229.19
2023-03-23T23:07:11.998Z,96221.97
2023-03-23T23:09:19.283Z,96211.66
2023-03-23T23:11:26.128Z,96219.63
2023-03-23T23:13:34.298Z,96214.31
2023-03-23T23:15:40.390Z,96214.00
2023-03-23T23:17:45.458Z,96212.13
2023-03-23T23:19:50.467Z,96213.66
2023-03-23T23:21:55.900Z,96208.69
2023-03-23T23:24:01.253Z,96212.47
2023-03-23T23:26:06.876Z,96204.47
2023-03-23T23:28:11.678Z,96204.47
2023-03-23T23:30:19.574Z,96200.25
2023-03-23T23:32:24.463Z,96204.00
2023-03-23T23:34:29.332Z,96192.91
2023-03-23T23:36:34.999Z,96199.78
2023-03-23T23:38:39.892Z,96201.66
2023-03-23T23:40:46.286Z,96190.91
2023-03-23T23:42:54.463Z,96193.56
2023-03-23T23:44:59.349Z,96195.09
2023-03-23T23:47:07.124Z,96191.97
2023-03-23T23:49:11.926Z,96193.56
2023-03-23T23:51:17.741Z,96184.31
2023-03-23T23:53:23.233Z,96176.66
2023-03-23T23:55:29.305Z,96175.56
2023-03-23T23:57:34.102Z,96176.34
2023-03-23T23:59:39.036Z,96172.91
